Time;durP1;ratioP1;P1;durP2;ratioP2;P2;SDS_P1;SDS_P2;PMS_P1;PMS_P2;Temp;Humidity;BMP_temperature;BMP_pressure;BME280_temperature;BME280_humidity;BME280_pressure;Samples;Min_cycle;Max_cycle;Signal;HPM_P1;HPM_P2
2021/10/04 00:01:34;;;;;;;1.00;0.87;;;16.20;74.50;;;;;;5041886;28;20462;-44
2021/10/04 00:04:01;;;;;;;0.70;0.50;;;16.20;74.70;;;;;;5039266;28;20466;-44
2021/10/04 00:06:29;;;;;;;1.63;0.57;;;16.20;74.70;;;;;;5041988;28;20501;-44
2021/10/04 00:08:56;;;;;;;0.40;0.30;;;16.20;74.90;;;;;;5044649;28;20470;-44
2021/10/04 00:11:23;;;;;;;0.40;0.40;;;16.20;75.00;;;;;;5040164;28;20488;-44
2021/10/04 00:13:50;;;;;;;0.40;0.40;;;16.20;75.10;;;;;;5044188;28;21089;-44
2021/10/04 00:16:17;;;;;;;0.63;0.40;;;16.20;75.20;;;;;;5038193;28;20458;-44
2021/10/04 00:18:45;;;;;;;0.73;0.47;;;16.20;75.40;;;;;;5038929;28;20462;-44
2021/10/04 00:21:11;;;;;;;0.60;0.40;;;16.20;75.40;;;;;;5043545;28;20458;-44
2021/10/04 00:23:38;;;;;;;1.20;0.30;;;16.20;75.60;;;;;;5029021;28;20974;-44
2021/10/04 00:26:06;;;;;;;1.10;0.40;;;16.20;75.70;;;;;;5038626;28;20465;-44
2021/10/04 00:28:33;;;;;;;1.23;0.40;;;16.20;75.80;;;;;;5040176;28;21748;-44
2021/10/04 00:31:00;;;;;;;0.43;0.37;;;16.20;76.00;;;;;;5025497;28;20479;-44
2021/10/04 00:33:27;;;;;;;1.27;0.30;;;16.20;76.00;;;;;;5041484;28;20994;-44
2021/10/04 00:35:53;;;;;;;0.50;0.30;;;16.20;76.10;;;;;;5044772;28;20473;-44
2021/10/04 00:38:20;;;;;;;0.53;0.40;;;16.10;76.30;;;;;;5030341;28;20467;-44
2021/10/04 00:40:47;;;;;;;0.40;0.30;;;16.10;76.40;;;;;;5022636;28;20450;-44
2021/10/04 00:43:14;;;;;;;1.10;0.73;;;16.10;76.40;;;;;;5042462;28;20826;-44
2021/10/04 00:45:41;;;;;;;1.00;0.50;;;16.10;76.20;;;;;;5031068;28;20815;-44
2021/10/04 00:48:08;;;;;;;0.60;0.60;;;16.10;76.20;;;;;;5040677;28;20455;-44
2021/10/04 00:50:35;;;;;;;0.50;0.40;;;16.10;76.30;;;;;;5040164;28;20489;-44
2021/10/04 00:53:01;;;;;;;0.70;0.70;;;16.20;76.10;;;;;;5040361;28;20443;-44
2021/10/04 00:55:28;;;;;;;0.40;0.40;;;16.10;76.10;;;;;;5043581;28;20462;-44
2021/10/04 00:57:56;;;;;;;0.70;0.70;;;16.10;76.30;;;;;;5040469;28;20461;-44
2021/10/04 01:00:26;;;;;;;0.67;0.67;;;16.10;76.50;;;;;;5039009;28;20458;-44
2021/10/04 01:02:54;;;;;;;0.50;0.50;;;16.10;76.60;;;;;;5029186;28;20553;-44
2021/10/04 01:05:21;;;;;;;0.67;0.67;;;16.00;76.60;;;;;;5027302;28;20458;-44
2021/10/04 01:07:48;;;;;;;0.57;0.57;;;16.00;76.40;;;;;;5040294;28;20451;-44
2021/10/04 01:10:16;;;;;;;0.47;0.47;;;16.00;76.30;;;;;;5039305;28;20490;-44
2021/10/04 01:12:46;;;;;;;0.63;0.60;;;16.00;76.10;;;;;;5040080;28;20485;-44
2021/10/04 01:15:15;;;;;;;0.97;0.70;;;16.00;76.10;;;;;;5037837;28;20454;-44
2021/10/04 01:17:42;;;;;;;0.50;0.50;;;16.00;76.10;;;;;;5039939;28;20486;-44
2021/10/04 01:20:22;;;;;;;0.57;0.50;;;16.00;76.10;;;;;;5042281;28;20458;-44
2021/10/04 01:22:50;;;;;;;0.60;0.60;;;16.00;76.20;;;;;;5036733;28;20471;-44
2021/10/04 01:25:18;;;;;;;0.40;0.40;;;16.00;76.20;;;;;;5021527;28;20843;-44
2021/10/04 01:27:46;;;;;;;0.50;0.50;;;16.00;76.10;;;;;;5042398;28;20683;-44
2021/10/04 01:30:16;;;;;;;0.57;0.50;;;16.00;75.90;;;;;;5022624;28;20450;-44
2021/10/04 01:32:44;;;;;;;13.13;7.60;;;16.00;75.80;;;;;;5042497;28;20467;-44
2021/10/04 01:35:12;;;;;;;19.17;11.90;;;16.00;75.30;;;;;;5040908;28;20493;-44
2021/10/04 01:37:39;;;;;;;11.57;9.00;;;16.00;75.20;;;;;;5019392;28;20454;-44
2021/10/04 01:40:08;;;;;;;2.23;2.00;;;16.00;75.20;;;;;;5029536;28;20459;-44
2021/10/04 01:42:35;;;;;;;0.80;0.80;;;16.00;75.30;;;;;;5029459;28;20454;-44
2021/10/04 01:45:10;;;;;;;2.10;0.80;;;15.90;75.30;;;;;;5043935;28;20756;-45
2021/10/04 01:47:37;;;;;;;1.20;0.60;;;15.90;75.50;;;;;;5043726;28;20450;-44
2021/10/04 01:50:06;;;;;;;0.50;0.50;;;15.90;75.70;;;;;;5044568;28;20458;-44
2021/10/04 01:52:33;;;;;;;1.17;0.70;;;15.90;75.80;;;;;;5045103;28;20466;-44
2021/10/04 01:55:00;;;;;;;1.60;1.00;;;15.80;75.70;;;;;;5046494;28;20462;-44
2021/10/04 01:57:28;;;;;;;1.00;0.90;;;15.80;75.80;;;;;;5042344;28;20442;-44
2021/10/04 01:59:55;;;;;;;1.70;0.90;;;15.80;75.80;;;;;;5044217;28;20450;-44
2021/10/04 02:02:21;;;;;;;0.80;0.70;;;15.80;75.90;;;;;;5042732;28;20475;-44
2021/10/04 02:04:48;;;;;;;1.53;0.90;;;15.80;75.80;;;;;;5041829;28;20461;-44
2021/10/04 02:07:15;;;;;;;0.87;0.87;;;15.70;76.10;;;;;;5044703;28;20513;-44
2021/10/04 02:09:42;;;;;;;0.70;0.70;;;15.70;76.40;;;;;;5044926;28;20464;-44
2021/10/04 02:12:08;;;;;;;0.90;0.60;;;15.60;76.50;;;;;;5043444;28;20484;-45
2021/10/04 02:14:35;;;;;;;1.17;0.60;;;15.70;76.40;;;;;;5056806;28;20470;-45
2021/10/04 02:17:02;;;;;;;3.00;1.20;;;15.60;76.40;;;;;;5033471;28;20989;-43
2021/10/04 02:19:29;;;;;;;1.90;0.90;;;15.70;76.50;;;;;;5027044;28;20465;-43
2021/10/04 02:21:59;;;;;;;2.37;0.90;;;15.60;76.50;;;;;;5043611;28;20843;-43
2021/10/04 02:24:27;;;;;;;0.73;0.73;;;15.70;76.50;;;;;;5042771;28;20463;-43
2021/10/04 02:26:53;;;;;;;1.47;0.73;;;15.70;76.50;;;;;;5044398;28;20466;-43
2021/10/04 02:29:20;;;;;;;1.10;0.80;;;15.70;76.50;;;;;;5040672;28;20462;-43
2021/10/04 02:31:48;;;;;;;0.83;0.83;;;15.70;76.50;;;;;;5047408;28;21198;-43
2021/10/04 02:34:15;;;;;;;0.90;0.60;;;15.70;76.50;;;;;;5043763;28;20455;-43
2021/10/04 02:36:42;;;;;;;1.70;0.83;;;15.70;76.40;;;;;;5030441;28;20466;-43
2021/10/04 02:39:08;;;;;;;0.90;0.90;;;15.70;76.20;;;;;;5029641;28;20543;-43
2021/10/04 02:41:35;;;;;;;0.90;0.90;;;15.70;76.30;;;;;;5042401;28;20454;-43
2021/10/04 02:44:02;;;;;;;1.53;0.87;;;15.70;76.40;;;;;;5044338;28;20458;-43
2021/10/04 02:46:29;;;;;;;1.03;1.03;;;15.70;76.50;;;;;;5042610;28;20845;-43
2021/10/04 02:48:56;;;;;;;1.70;1.33;;;15.70;76.70;;;;;;5043220;28;20463;-43
2021/10/04 02:51:23;;;;;;;1.23;0.73;;;15.70;76.70;;;;;;5045794;28;20494;-43
2021/10/04 02:53:49;;;;;;;0.80;0.80;;;15.70;76.80;;;;;;5045364;28;20724;-43
2021/10/04 02:56:16;;;;;;;1.40;0.90;;;15.70;76.80;;;;;;5044557;28;20908;-43
2021/10/04 02:58:43;;;;;;;0.80;0.80;;;15.70;76.70;;;;;;5041782;28;20483;-43
2021/10/04 03:01:10;;;;;;;0.70;0.70;;;15.70;76.60;;;;;;5041227;28;20455;-43
2021/10/04 03:03:37;;;;;;;0.63;0.63;;;15.70;76.60;;;;;;5042495;28;20454;-43
2021/10/04 03:06:03;;;;;;;1.10;0.80;;;15.70;76.60;;;;;;5044500;28;20462;-42
2021/10/04 03:08:30;;;;;;;5.17;1.10;;;15.60;76.80;;;;;;5045067;28;20455;-42
2021/10/04 03:10:57;;;;;;;0.73;0.73;;;15.60;76.80;;;;;;5041507;28;20486;-43
2021/10/04 03:13:24;;;;;;;1.27;0.77;;;15.60;76.70;;;;;;5041611;28;20506;-43
2021/10/04 03:15:50;;;;;;;1.10;0.73;;;15.60;76.70;;;;;;5041162;28;20446;-43
2021/10/04 03:18:17;;;;;;;1.00;0.77;;;15.60;76.70;;;;;;5042740;28;20525;-43
2021/10/04 03:20:44;;;;;;;1.27;0.90;;;15.60;76.80;;;;;;5042987;28;20455;-43
2021/10/04 03:23:10;;;;;;;1.10;1.00;;;15.60;76.80;;;;;;5038336;28;20459;-43
2021/10/04 03:25:37;;;;;;;1.60;0.80;;;15.60;76.90;;;;;;5040584;28;20455;-43
2021/10/04 03:28:05;;;;;;;1.07;1.00;;;15.60;77.00;;;;;;5041622;28;20478;-43
2021/10/04 03:30:33;;;;;;;0.90;0.90;;;15.60;77.00;;;;;;5031171;28;20494;-43
2021/10/04 03:33:02;;;;;;;0.90;0.90;;;15.60;77.20;;;;;;5045465;28;20484;-43
2021/10/04 03:35:28;;;;;;;1.20;1.10;;;15.60;77.10;;;;;;5041040;28;20809;-43
2021/10/04 03:37:56;;;;;;;1.10;1.00;;;15.60;77.30;;;;;;5040732;28;20447;-43
2021/10/04 03:40:23;;;;;;;1.00;0.60;;;15.60;77.30;;;;;;5039486;28;20455;-43
2021/10/04 03:42:50;;;;;;;1.10;1.10;;;15.60;77.30;;;;;;5045560;28;20464;-43
2021/10/04 03:45:17;;;;;;;1.33;1.10;;;15.60;77.30;;;;;;5041997;28;20463;-43
2021/10/04 03:47:45;;;;;;;0.90;0.90;;;15.60;77.30;;;;;;5043764;28;20558;-43
2021/10/04 03:50:13;;;;;;;1.63;0.83;;;15.60;77.40;;;;;;5041374;28;20824;-43
2021/10/04 03:52:41;;;;;;;1.00;1.00;;;15.50;77.50;;;;;;5040931;28;20482;-43
2021/10/04 03:55:10;;;;;;;1.27;1.10;;;15.50;77.50;;;;;;5039731;28;20538;-43
2021/10/04 03:57:38;;;;;;;1.03;0.93;;;15.60;77.50;;;;;;5036204;28;20571;-43
2021/10/04 04:00:14;;;;;;;1.40;1.30;;;15.60;77.30;;;;;;5039276;28;21080;-43
2021/10/04 04:02:40;;;;;;;2.13;0.97;;;15.60;77.30;;;;;;5043483;28;20450;-43
2021/10/04 04:05:08;;;;;;;1.47;1.30;;;15.50;77.40;;;;;;5040532;28;20455;-43
2021/10/04 04:07:35;;;;;;;1.47;1.30;;;15.50;77.70;;;;;;5040854;28;20453;-43
2021/10/04 04:10:04;;;;;;;1.03;1.00;;;15.60;77.80;;;;;;5041689;28;20451;-43
2021/10/04 04:12:32;;;;;;;2.40;1.37;;;15.60;77.70;;;;;;5025514;28;20493;-43
2021/10/04 04:14:58;;;;;;;1.30;1.20;;;15.50;77.80;;;;;;5040735;28;20475;-43
2021/10/04 04:17:25;;;;;;;1.73;1.33;;;15.50;77.90;;;;;;5043433;28;20454;-43
2021/10/04 04:19:52;;;;;;;1.40;1.30;;;15.50;78.00;;;;;;5041908;28;20455;-43
2021/10/04 04:22:19;;;;;;;1.30;1.17;;;15.50;78.20;;;;;;5040483;28;20502;-43
2021/10/04 04:24:46;;;;;;;1.57;1.47;;;15.50;78.30;;;;;;5038143;28;20458;-43
2021/10/04 04:27:12;;;;;;;1.87;1.40;;;15.50;78.40;;;;;;5039389;28;20454;-43
2021/10/04 04:29:40;;;;;;;1.60;1.50;;;15.50;78.50;;;;;;5026495;28;20455;-43
2021/10/04 04:32:09;;;;;;;1.40;1.30;;;15.50;78.80;;;;;;5040544;28;20577;-43
2021/10/04 04:34:36;;;;;;;1.70;1.60;;;15.50;78.90;;;;;;5041878;28;20541;-43
2021/10/04 04:37:04;;;;;;;1.67;1.57;;;15.50;79.40;;;;;;5042879;28;20466;-43
2021/10/04 04:39:33;;;;;;;1.70;1.60;;;15.50;79.20;;;;;;5041369;28;20459;-43
2021/10/04 04:42:02;;;;;;;2.37;2.17;;;15.50;79.60;;;;;;5041866;28;20933;-43
2021/10/04 04:44:29;;;;;;;2.13;1.67;;;15.40;79.90;;;;;;5040764;28;21117;-43
2021/10/04 04:46:56;;;;;;;1.80;1.70;;;15.40;80.30;;;;;;5026405;28;20456;-43
2021/10/04 04:49:27;;;;;;;1.90;1.73;;;15.40;80.50;;;;;;5029740;28;20467;-43
2021/10/04 04:51:55;;;;;;;3.57;1.80;;;15.30;80.80;;;;;;5040628;28;20479;-43
2021/10/04 04:54:22;;;;;;;2.07;1.87;;;15.30;81.00;;;;;;5040009;28;20451;-43
2021/10/04 04:56:49;;;;;;;1.57;1.47;;;15.30;81.30;;;;;;5044295;28;20492;-43
2021/10/04 04:59:16;;;;;;;1.90;1.80;;;15.20;81.50;;;;;;5038579;28;20459;-43
2021/10/04 05:01:43;;;;;;;2.10;1.90;;;15.20;81.70;;;;;;5042981;28;20479;-43
2021/10/04 05:04:11;;;;;;;4.27;2.00;;;15.20;81.90;;;;;;5046065;28;20802;-43
2021/10/04 05:06:39;;;;;;;1.70;1.60;;;15.20;82.00;;;;;;5037460;28;20459;-43
2021/10/04 05:09:06;;;;;;;1.57;1.47;;;15.20;82.00;;;;;;5029029;28;20461;-43
2021/10/04 05:11:33;;;;;;;1.83;1.67;;;15.20;82.20;;;;;;5039034;28;20578;-43
2021/10/04 05:14:00;;;;;;;2.10;1.80;;;15.20;82.30;;;;;;5026567;28;20478;-43
2021/10/04 05:16:26;;;;;;;6.30;4.30;;;15.20;82.20;;;;;;5039190;28;20459;-43
2021/10/04 05:18:53;;;;;;;3.67;2.93;;;15.20;82.40;;;;;;5044202;28;20889;-43
2021/10/04 05:21:20;;;;;;;2.50;2.30;;;15.20;82.40;;;;;;5041603;28;20515;-43
2021/10/04 05:23:47;;;;;;;3.60;2.53;;;15.20;82.40;;;;;;5043266;28;20466;-43
2021/10/04 05:26:13;;;;;;;3.53;2.50;;;15.20;82.50;;;;;;5038946;28;20457;-43
2021/10/04 05:28:40;;;;;;;2.57;2.37;;;15.20;82.50;;;;;;5041695;28;20470;-43
2021/10/04 05:31:07;;;;;;;4.50;2.00;;;15.20;82.50;;;;;;5039370;28;20927;-43
2021/10/04 05:33:36;;;;;;;3.40;2.40;;;15.20;82.80;;;;;;5042478;28;20450;-43
2021/10/04 05:36:06;;;;;;;6.43;2.20;;;15.10;82.80;;;;;;5038506;28;20450;-43
2021/10/04 05:38:33;;;;;;;2.27;2.07;;;15.10;82.90;;;;;;5042142;28;20465;-43
2021/10/04 05:41:00;;;;;;;2.40;2.20;;;15.10;83.20;;;;;;5041791;28;20833;-43
2021/10/04 05:43:27;;;;;;;2.33;2.10;;;15.10;83.30;;;;;;5026727;28;20485;-43
2021/10/04 05:45:54;;;;;;;2.63;2.43;;;15.10;83.40;;;;;;5038235;28;20458;-43
2021/10/04 05:48:20;;;;;;;3.00;2.70;;;15.00;83.60;;;;;;5042358;28;20620;-43
2021/10/04 05:50:49;;;;;;;2.93;2.60;;;15.10;83.60;;;;;;5041360;28;20966;-43
2021/10/04 05:53:16;;;;;;;2.63;2.30;;;15.10;83.60;;;;;;5029751;28;20497;-43
2021/10/04 05:55:47;;;;;;;2.70;2.50;;;15.00;83.60;;;;;;5041242;28;20458;-43
2021/10/04 05:58:15;;;;;;;3.83;2.00;;;15.00;83.60;;;;;;5039012;28;20450;-43
2021/10/04 06:00:43;;;;;;;4.07;3.53;;;15.00;83.60;;;;;;5039379;28;20513;-43
2021/10/04 06:03:10;;;;;;;2.50;2.30;;;15.00;83.60;;;;;;5041508;28;20462;-43
2021/10/04 06:05:37;;;;;;;2.60;2.23;;;15.00;83.70;;;;;;5037062;28;20477;-43
2021/10/04 06:08:04;;;;;;;2.80;2.60;;;15.00;83.80;;;;;;5038589;28;20474;-43
2021/10/04 06:10:30;;;;;;;2.73;2.53;;;15.00;84.00;;;;;;5035968;28;20459;-43
2021/10/04 06:12:57;;;;;;;2.90;2.30;;;15.00;84.00;;;;;;5036558;28;20490;-43
2021/10/04 06:15:24;;;;;;;5.27;3.07;;;15.00;84.00;;;;;;5037066;28;20455;-43
2021/10/04 06:17:52;;;;;;;2.83;2.57;;;15.00;84.10;;;;;;5040660;28;20963;-43
2021/10/04 06:20:18;;;;;;;2.60;2.37;;;15.00;84.10;;;;;;5025815;28;20500;-43
2021/10/04 06:22:46;;;;;;;3.90;2.30;;;15.00;84.10;;;;;;5043453;28;20905;-43
2021/10/04 06:25:15;;;;;;;3.23;2.97;;;15.00;84.10;;;;;;5044870;28;20826;-43
2021/10/04 06:27:43;;;;;;;2.70;2.50;;;15.00;84.00;;;;;;5044993;28;20538;-43
2021/10/04 06:30:11;;;;;;;4.17;3.27;;;15.00;84.00;;;;;;5029596;28;20451;-43
2021/10/04 06:32:38;;;;;;;3.90;3.07;;;15.00;84.00;;;;;;5044596;28;20499;-43
2021/10/04 06:35:05;;;;;;;3.10;2.90;;;15.00;83.80;;;;;;5046942;28;20451;-43
2021/10/04 06:37:32;;;;;;;2.90;2.70;;;15.10;83.60;;;;;;5043055;28;20487;-43
2021/10/04 06:40:00;;;;;;;3.00;2.67;;;15.10;83.40;;;;;;5042270;28;20543;-43
2021/10/04 06:42:27;;;;;;;3.07;2.77;;;15.00;83.70;;;;;;5031191;28;20461;-43
2021/10/04 06:44:54;;;;;;;3.97;2.57;;;15.00;83.80;;;;;;5025922;28;20459;-43
2021/10/04 06:47:22;;;;;;;3.00;2.30;;;15.00;83.80;;;;;;5043992;28;20474;-43
2021/10/04 06:49:49;;;;;;;2.57;2.37;;;15.00;83.80;;;;;;5043704;28;20948;-43
2021/10/04 06:52:16;;;;;;;2.80;2.60;;;15.00;83.80;;;;;;5044050;28;20502;-43
2021/10/04 06:54:43;;;;;;;2.47;2.27;;;14.90;83.90;;;;;;5042534;28;20494;-43
2021/10/04 06:57:10;;;;;;;2.93;2.60;;;15.00;84.10;;;;;;5042746;28;20823;-43
2021/10/04 06:59:37;;;;;;;3.03;2.70;;;15.00;84.20;;;;;;5045814;28;20472;-43
2021/10/04 07:02:08;;;;;;;3.40;3.10;;;15.00;84.20;;;;;;5038616;28;20466;-43
2021/10/04 07:04:35;;;;;;;2.77;2.57;;;15.00;84.20;;;;;;5041744;28;20542;-43
2021/10/04 07:07:02;;;;;;;3.40;3.10;;;15.00;84.10;;;;;;5043211;28;20466;-43
2021/10/04 07:09:28;;;;;;;2.90;2.60;;;15.00;83.90;;;;;;5038266;28;20463;-44
2021/10/04 07:11:58;;;;;;;3.77;2.87;;;15.10;83.60;;;;;;5036597;28;20481;-43
2021/10/04 07:14:25;;;;;;;3.60;3.30;;;15.10;83.50;;;;;;5028395;28;20471;-43
2021/10/04 07:16:52;;;;;;;3.77;2.77;;;15.10;83.30;;;;;;5042607;28;20464;-43
2021/10/04 07:19:18;;;;;;;3.90;3.50;;;15.00;83.50;;;;;;5043653;28;20458;-43
2021/10/04 07:21:51;;;;;;;3.80;2.57;;;15.00;83.60;;;;;;5042692;28;20809;-43
2021/10/04 07:24:21;;;;;;;4.70;3.43;;;15.00;83.80;;;;;;5045903;28;20463;-43
2021/10/04 07:26:49;;;;;;;4.20;3.00;;;15.00;84.00;;;;;;5043960;28;20787;-43
2021/10/04 07:29:17;;;;;;;4.60;3.43;;;15.00;84.20;;;;;;5043116;28;20470;-43
2021/10/04 07:31:44;;;;;;;4.60;3.10;;;15.10;84.30;;;;;;5027571;28;20473;-43
2021/10/04 07:34:11;;;;;;;3.57;3.27;;;15.10;84.20;;;;;;5041028;28;21374;-43
2021/10/04 07:36:38;;;;;;;4.90;3.07;;;15.10;84.30;;;;;;5042096;28;20940;-43
2021/10/04 07:39:07;;;;;;;5.10;3.53;;;15.20;84.30;;;;;;5043006;28;20443;-43
2021/10/04 07:41:34;;;;;;;4.27;3.77;;;15.20;84.00;;;;;;5044993;28;20448;-43
2021/10/04 07:44:01;;;;;;;4.30;3.30;;;15.20;83.90;;;;;;5039809;28;20463;-43
2021/10/04 07:46:28;;;;;;;4.60;3.20;;;15.30;83.30;;;;;;5043207;28;20458;-43
2021/10/04 07:48:55;;;;;;;3.40;3.10;;;15.30;83.20;;;;;;5041001;28;20518;-43
2021/10/04 07:51:22;;;;;;;4.07;3.53;;;15.30;83.30;;;;;;5043405;28;20462;-43
2021/10/04 07:53:51;;;;;;;4.83;3.60;;;15.30;83.20;;;;;;5042715;28;20888;-43
2021/10/04 07:56:19;;;;;;;3.60;2.90;;;15.40;83.20;;;;;;5040563;28;20463;-43
2021/10/04 07:58:47;;;;;;;3.90;3.50;;;15.40;83.20;;;;;;5042728;28;20470;-43
2021/10/04 08:01:14;;;;;;;5.90;3.80;;;15.40;83.10;;;;;;5040330;28;20465;-43
2021/10/04 08:03:41;;;;;;;3.70;3.07;;;15.40;83.10;;;;;;5040888;28;20493;-43
2021/10/04 08:06:08;;;;;;;6.13;3.43;;;15.40;83.10;;;;;;5042933;28;20467;-43
2021/10/04 08:08:36;;;;;;;4.70;3.13;;;15.40;83.00;;;;;;5041053;28;20465;-43
2021/10/04 08:11:03;;;;;;;4.43;2.57;;;15.50;83.00;;;;;;5039370;28;20458;-43
2021/10/04 08:13:30;;;;;;;3.80;3.50;;;15.50;82.70;;;;;;5037581;28;20505;-43
2021/10/04 08:15:57;;;;;;;4.47;3.50;;;15.50;82.50;;;;;;5027741;28;20475;-43
2021/10/04 08:18:28;;;;;;;3.27;3.00;;;15.60;82.30;;;;;;5042638;28;20548;-43
2021/10/04 08:20:54;;;;;;;3.83;3.53;;;15.60;82.30;;;;;;5039434;28;20455;-43
2021/10/04 08:23:21;;;;;;;4.60;2.60;;;15.70;82.00;;;;;;5039073;28;20469;-43
2021/10/04 08:25:48;;;;;;;4.63;3.47;;;15.70;82.00;;;;;;5016519;28;20454;-43
2021/10/04 08:28:14;;;;;;;3.47;3.10;;;15.70;81.70;;;;;;5038501;28;20458;-43
2021/10/04 08:30:41;;;;;;;3.20;2.73;;;15.70;81.50;;;;;;5021955;28;20458;-43
2021/10/04 08:33:08;;;;;;;3.43;3.10;;;15.70;81.40;;;;;;5042205;28;20494;-43
2021/10/04 08:35:35;;;;;;;3.50;3.20;;;15.80;81.40;;;;;;5042569;28;20473;-43
2021/10/04 08:38:01;;;;;;;3.57;3.10;;;15.80;81.10;;;;;;5041248;28;20979;-43
2021/10/04 08:40:28;;;;;;;3.53;3.20;;;15.80;81.00;;;;;;5028305;28;20458;-43
2021/10/04 08:42:55;;;;;;;4.00;3.70;;;15.90;80.40;;;;;;5040176;28;20460;-43
2021/10/04 08:45:26;;;;;;;4.20;3.80;;;15.90;80.10;;;;;;5041555;28;20466;-43
2021/10/04 08:47:58;;;;;;;4.23;3.00;;;15.90;80.10;;;;;;5043503;28;20459;-43
2021/10/04 08:50:28;;;;;;;3.13;2.87;;;15.90;79.70;;;;;;5036608;28;20447;-43
2021/10/04 08:52:55;;;;;;;4.37;3.20;;;15.90;79.60;;;;;;5041408;28;20768;-43
2021/10/04 08:55:22;;;;;;;3.50;3.20;;;16.00;78.20;;;;;;5040672;28;20450;-43
2021/10/04 08:57:49;;;;;;;3.27;2.67;;;16.00;78.60;;;;;;5042425;28;20455;-43
2021/10/04 09:00:16;;;;;;;3.30;2.73;;;16.00;78.80;;;;;;5043788;28;20960;-43
2021/10/04 09:02:43;;;;;;;2.73;2.40;;;16.00;78.20;;;;;;5041912;28;20477;-43
2021/10/04 09:05:18;;;;;;;3.17;2.23;;;15.90;78.50;;;;;;5022613;28;20779;-43
2021/10/04 09:07:47;;;;;;;3.53;3.23;;;15.90;78.70;;;;;;5038291;28;20469;-43
2021/10/04 09:10:25;;;;;;;2.70;2.40;;;15.90;78.80;;;;;;5039548;28;20481;-43
2021/10/04 09:12:58;;;;;;;2.93;1.90;;;15.90;78.80;;;;;;5039673;28;20483;-43
2021/10/04 09:15:42;;;;;;;2.80;2.60;;;16.00;78.70;;;;;;5026058;28;21220;-43
2021/10/04 09:18:19;;;;;;;3.00;2.70;;;16.00;78.60;;;;;;5025629;28;21001;-43
2021/10/04 09:21:03;;;;;;;3.60;2.60;;;16.00;78.50;;;;;;5036819;28;21377;-43
2021/10/04 09:23:44;;;;;;;3.40;2.40;;;16.00;78.30;;;;;;5036636;28;20458;-43
2021/10/04 09:26:26;;;;;;;3.70;2.40;;;16.10;77.80;;;;;;5042169;28;20561;-43
2021/10/04 09:29:11;;;;;;;2.90;2.60;;;16.10;78.00;;;;;;5038647;28;20825;-43
2021/10/04 09:31:42;;;;;;;3.00;2.60;;;16.10;78.00;;;;;;5043884;28;20463;-43
2021/10/04 09:34:26;;;;;;;5.80;2.63;;;16.20;78.00;;;;;;5040752;28;20851;-43
2021/10/04 09:36:58;;;;;;;3.50;2.67;;;16.20;77.60;;;;;;5041705;28;20466;-43
2021/10/04 09:39:26;;;;;;;3.50;2.07;;;16.30;76.80;;;;;;5041461;28;20478;-43
2021/10/04 09:42:18;;;;;;;4.93;2.50;;;16.30;76.80;;;;;;5040480;28;20465;-43
2021/10/04 09:44:58;;;;;;;1.93;1.83;;;16.30;76.80;;;;;;5041336;28;20540;-43
2021/10/04 09:47:32;;;;;;;2.47;2.27;;;16.30;76.40;;;;;;5042625;28;20541;-43
2021/10/04 09:50:00;;;;;;;2.20;1.60;;;16.30;76.40;;;;;;5025366;28;20617;-43
2021/10/04 09:52:36;;;;;;;2.40;1.80;;;16.40;76.20;;;;;;5037900;28;20451;-43
2021/10/04 09:55:26;;;;;;;6.57;2.00;;;16.40;75.10;;;;;;5036298;28;20471;-43
2021/10/04 09:58:15;;;;;;;1.77;1.67;;;16.50;73.90;;;;;;5045412;28;20450;-43
2021/10/04 10:00:55;;;;;;;3.50;2.07;;;16.50;74.30;;;;;;5043496;28;20851;-43
2021/10/04 10:03:26;;;;;;;2.30;1.97;;;16.50;74.50;;;;;;5042365;28;20462;-43
2021/10/04 10:05:56;;;;;;;3.23;1.63;;;16.50;74.50;;;;;;5046392;28;21104;-43
2021/10/04 10:08:24;;;;;;;2.00;1.60;;;16.50;74.10;;;;;;5040886;28;20455;-43
2021/10/04 10:10:54;;;;;;;2.10;1.80;;;16.60;73.20;;;;;;5044540;28;20469;-43
2021/10/04 10:13:22;;;;;;;2.10;1.63;;;16.70;73.10;;;;;;5044753;28;20487;-43
2021/10/04 10:16:41;;;;;;;2.50;1.57;;;16.70;72.60;;;;;;5045386;28;20967;-43
2021/10/04 10:19:15;;;;;;;1.73;1.63;;;16.70;72.60;;;;;;5032765;28;20447;-43
2021/10/04 10:21:43;;;;;;;2.13;1.83;;;16.70;72.40;;;;;;5046346;28;20819;-43
2021/10/04 10:24:12;;;;;;;1.93;1.83;;;16.70;72.20;;;;;;5044728;28;20883;-43
2021/10/04 10:26:41;;;;;;;2.70;1.60;;;16.60;72.50;;;;;;5040443;28;20887;-43
2021/10/04 10:29:08;;;;;;;1.70;1.60;;;16.60;73.20;;;;;;5037789;28;20944;-43
2021/10/04 10:31:50;;;;;;;4.03;1.40;;;16.50;73.50;;;;;;5048185;28;20977;-43
2021/10/04 10:34:29;;;;;;;1.70;1.33;;;16.60;73.50;;;;;;5041656;28;20505;-43
2021/10/04 10:37:17;;;;;;;1.63;1.43;;;16.50;73.60;;;;;;5028125;28;20458;-43
2021/10/04 10:39:50;;;;;;;2.40;1.97;;;16.50;73.90;;;;;;5045328;28;20952;-43
2021/10/04 10:42:28;;;;;;;2.13;1.83;;;16.50;74.00;;;;;;5023737;28;20451;-43
2021/10/04 10:44:57;;;;;;;1.67;1.57;;;16.50;74.10;;;;;;5042902;28;20461;-43
2021/10/04 10:47:36;;;;;;;4.53;2.70;;;16.50;74.00;;;;;;5030941;28;20446;-43
2021/10/04 10:50:12;;;;;;;3.40;2.03;;;16.60;73.30;;;;;;5043225;28;20830;-43
2021/10/04 10:52:54;;;;;;;3.17;1.90;;;16.60;73.70;;;;;;5024169;28;20454;-43
2021/10/04 10:55:21;;;;;;;2.40;1.70;;;16.60;73.90;;;;;;5043274;28;20465;-43
2021/10/04 10:57:51;;;;;;;2.23;1.60;;;16.60;73.90;;;;;;5043911;28;20538;-43
2021/10/04 11:00:36;;;;;;;1.70;1.60;;;16.60;73.60;;;;;;5042576;28;20447;-43
2021/10/04 11:03:14;;;;;;;2.47;2.20;;;16.70;73.70;;;;;;5042791;28;20489;-43
2021/10/04 11:05:41;;;;;;;2.07;1.97;;;16.70;73.60;;;;;;5038473;28;20474;-43
2021/10/04 11:08:22;;;;;;;3.67;2.30;;;16.70;72.60;;;;;;5041770;28;21225;-43
2021/10/04 11:10:49;;;;;;;1.47;1.33;;;16.70;72.80;;;;;;5044451;28;20462;-43
2021/10/04 11:13:22;;;;;;;1.40;1.30;;;16.70;73.10;;;;;;5041858;28;20545;-43
2021/10/04 11:15:49;;;;;;;1.53;1.20;;;16.80;72.50;;;;;;5040476;28;20459;-43
2021/10/04 11:18:16;;;;;;;1.70;1.30;;;16.80;72.60;;;;;;5040252;28;20470;-43
2021/10/04 11:20:43;;;;;;;1.47;1.37;;;16.80;72.60;;;;;;5039664;28;20478;-43
2021/10/04 11:23:12;;;;;;;2.33;1.43;;;16.80;72.90;;;;;;5042531;28;20455;-43
2021/10/04 11:25:56;;;;;;;1.40;1.23;;;16.80;71.90;;;;;;5043686;28;20471;-43
2021/10/04 11:28:37;;;;;;;4.30;1.07;;;16.80;72.20;;;;;;5042407;28;20465;-43
2021/10/04 11:31:08;;;;;;;1.77;1.30;;;16.90;71.50;;;;;;5030050;28;20465;-43
2021/10/04 11:33:39;;;;;;;1.50;1.10;;;17.00;71.00;;;;;;5028377;28;20497;-42
2021/10/04 11:36:11;;;;;;;1.00;0.83;;;17.10;70.90;;;;;;5043794;28;20458;-42
2021/10/04 11:38:57;;;;;;;3.90;1.40;;;17.10;70.50;;;;;;5043660;28;20486;-42
2021/10/04 11:41:41;;;;;;;1.17;1.07;;;17.20;70.80;;;;;;5040202;28;20455;-42
2021/10/04 11:44:29;;;;;;;1.80;1.27;;;17.20;70.00;;;;;;5041657;28;20466;-42
2021/10/04 11:47:03;;;;;;;1.40;1.03;;;17.30;70.00;;;;;;5042293;28;20871;-42
2021/10/04 11:49:32;;;;;;;1.20;1.10;;;17.30;70.00;;;;;;5045769;28;20469;-43
2021/10/04 11:52:06;;;;;;;1.23;1.03;;;17.40;70.00;;;;;;5041055;28;20959;-42
2021/10/04 11:54:45;;;;;;;1.20;1.20;;;17.50;69.50;;;;;;5040382;28;20479;-43
2021/10/04 11:57:19;;;;;;;1.20;1.10;;;17.60;68.70;;;;;;5042293;28;20450;-42
2021/10/04 11:59:47;;;;;;;1.07;0.90;;;17.60;68.80;;;;;;5044691;28;20462;-42
2021/10/04 12:02:26;;;;;;;1.40;1.10;;;17.60;69.10;;;;;;5042182;28;20849;-42
2021/10/04 12:05:28;;;;;;;0.90;0.90;;;17.60;69.40;;;;;;5043670;28;20541;-42
2021/10/04 12:08:06;;;;;;;0.90;0.90;;;17.60;69.40;;;;;;5004888;28;20944;-42
2021/10/04 12:10:45;;;;;;;0.80;0.67;;;17.60;69.40;;;;;;5039447;28;20539;-42
2021/10/04 12:13:27;;;;;;;0.70;0.70;;;17.60;69.10;;;;;;5040304;28;20519;-42
2021/10/04 12:15:57;;;;;;;1.73;0.90;;;17.70;68.00;;;;;;5041267;28;20463;-42
2021/10/04 12:18:26;;;;;;;0.83;0.83;;;17.70;67.60;;;;;;5039282;28;20461;-43
2021/10/04 12:21:24;;;;;;;1.77;1.40;;;17.70;67.40;;;;;;5039855;28;20461;-42
2021/10/04 12:24:12;;;;;;;0.90;0.80;;;17.60;67.70;;;;;;5042238;28;20835;-42
2021/10/04 12:26:52;;;;;;;1.17;1.03;;;17.60;67.30;;;;;;5029589;28;20465;-42
2021/10/04 12:29:34;;;;;;;1.20;1.10;;;17.60;67.90;;;;;;5042759;28;20469;-42
2021/10/04 12:32:25;;;;;;;0.60;0.60;;;17.50;68.10;;;;;;5040850;28;20471;-43
2021/10/04 12:34:59;;;;;;;1.13;0.80;;;17.50;68.80;;;;;;5042937;28;20872;-43
2021/10/04 12:37:28;;;;;;;1.10;1.00;;;17.50;68.50;;;;;;5040450;28;20950;-43
2021/10/04 12:39:55;;;;;;;1.53;1.00;;;17.50;68.70;;;;;;5038818;28;20454;-43
2021/10/04 12:42:23;;;;;;;3.23;0.90;;;17.50;68.60;;;;;;5043026;28;20457;-43
2021/10/04 12:44:49;;;;;;;2.00;0.93;;;17.50;68.80;;;;;;5043097;28;20455;-43
2021/10/04 12:47:16;;;;;;;0.83;0.80;;;17.50;68.70;;;;;;5042237;28;20974;-42
2021/10/04 12:49:55;;;;;;;1.10;1.00;;;17.50;69.00;;;;;;5038563;28;20462;-42
2021/10/04 12:52:30;;;;;;;0.70;0.70;;;17.50;68.90;;;;;;5039896;28;20830;-42
2021/10/04 12:54:57;;;;;;;1.53;0.87;;;17.50;68.30;;;;;;5030757;28;21091;-42
2021/10/04 12:57:27;;;;;;;1.33;0.80;;;17.50;68.00;;;;;;5040793;28;20450;-42
2021/10/04 13:00:02;;;;;;;1.03;0.80;;;17.50;68.10;;;;;;5041450;28;20529;-42